Terminal Aerodrome Forecast
Issued by NWS

Home | Current Version | Previous Version | Text Only | Print | Product List | Glossary On
Versions: 1 2 3 4 5 6 7 8 9 10 11 12 13 14 15 16 17 18 19 20 21 22 23
000
FTUS44 KEWX 282338
TAFSSF
TAF
KSSF 282338Z 2900/2924 12015KT P6SM FEW030 FEW040 SCT050
     FM290500 14005KT P6SM OVC015
     FM290800 15010KT 6SM -SHRA OVC008
      TEMPO 2908/2911 2SM +TSRA OVC008CB
     FM291600 14010KT P6SM BKN025 BKN040=

USA.gov is the U.S. government's official web portal to all federal, state and local government web resources and services.